sensor_id;sensor_type;location;lat;lon;timestamp;pressure;altitude;pressure_sealevel;temperature;humidity
75247;BME280;63844;50.042;19.224;2023-04-24T00:00:32;98165.40;;;9.94;72.47
75247;BME280;63844;50.042;19.224;2023-04-24T00:03:18;98162.30;;;9.90;70.82
75247;BME280;63844;50.042;19.224;2023-04-24T00:05:47;98159.98;;;9.84;72.43
75247;BME280;63844;50.042;19.224;2023-04-24T00:08:14;98154.17;;;9.81;72.12
75247;BME280;63844;50.042;19.224;2023-04-24T00:10:41;98152.23;;;9.81;74.24
75247;BME280;63844;50.042;19.224;2023-04-24T00:13:07;98151.17;;;9.81;73.13
75247;BME280;63844;50.042;19.224;2023-04-24T00:15:34;98146.21;;;9.88;71.34
75247;BME280;63844;50.042;19.224;2023-04-24T00:18:01;98147.59;;;10.00;70.46
75247;BME280;63844;50.042;19.224;2023-04-24T00:20:28;98143.99;;;10.14;69.38
75247;BME280;63844;50.042;19.224;2023-04-24T00:22:55;98147.02;;;10.23;68.30
75247;BME280;63844;50.042;19.224;2023-04-24T00:25:22;98139.08;;;10.35;68.22
75247;BME280;63844;50.042;19.224;2023-04-24T00:27:48;98132.64;;;10.42;67.92
75247;BME280;63844;50.042;19.224;2023-04-24T00:30:14;98131.16;;;10.49;67.37
75247;BME280;63844;50.042;19.224;2023-04-24T00:32:41;98128.84;;;10.54;67.51
75247;BME280;63844;50.042;19.224;2023-04-24T00:35:07;98127.25;;;10.54;67.80
75247;BME280;63844;50.042;19.224;2023-04-24T00:37:34;98123.81;;;10.51;67.75
75247;BME280;63844;50.042;19.224;2023-04-24T00:40:01;98122.63;;;10.41;68.42
75247;BME280;63844;50.042;19.224;2023-04-24T00:42:28;98117.48;;;10.35;69.82
75247;BME280;63844;50.042;19.224;2023-04-24T00:44:56;98114.19;;;10.32;68.85
75247;BME280;63844;50.042;19.224;2023-04-24T00:47:23;98112.17;;;10.19;70.92
75247;BME280;63844;50.042;19.224;2023-04-24T00:49:50;98112.50;;;10.17;68.75
75247;BME280;63844;50.042;19.224;2023-04-24T00:52:16;98105.58;;;10.10;68.80
75247;BME280;63844;50.042;19.224;2023-04-24T00:54:44;98105.31;;;10.02;68.78
75247;BME280;63844;50.042;19.224;2023-04-24T00:57:14;98101.87;;;9.97;68.93
75247;BME280;63844;50.042;19.224;2023-04-24T00:59:42;98101.52;;;9.90;70.13
75247;BME280;63844;50.042;19.224;2023-04-24T01:02:09;98103.14;;;9.85;69.38
75247;BME280;63844;50.042;19.224;2023-04-24T01:04:37;98099.77;;;9.74;70.69
75247;BME280;63844;50.042;19.224;2023-04-24T01:07:04;98101.22;;;9.69;70.96
75247;BME280;63844;50.042;19.224;2023-04-24T01:09:40;98098.84;;;9.60;75.07
75247;BME280;63844;50.042;19.224;2023-04-24T01:12:08;98095.04;;;9.59;70.94
75247;BME280;63844;50.042;19.224;2023-04-24T01:14:36;98093.02;;;9.53;71.79
75247;BME280;63844;50.042;19.224;2023-04-24T01:17:02;98087.64;;;9.50;72.65
75247;BME280;63844;50.042;19.224;2023-04-24T01:19:29;98086.61;;;9.42;73.07
75247;BME280;63844;50.042;19.224;2023-04-24T01:21:58;98085.52;;;9.36;73.47
75247;BME280;63844;50.042;19.224;2023-04-24T01:24:24;98084.19;;;9.30;73.33
75247;BME280;63844;50.042;19.224;2023-04-24T01:26:51;98082.29;;;9.27;71.03
75247;BME280;63844;50.042;19.224;2023-04-24T01:29:18;98077.54;;;9.20;74.47
75247;BME280;63844;50.042;19.224;2023-04-24T01:31:44;98073.14;;;9.13;74.27
75247;BME280;63844;50.042;19.224;2023-04-24T01:34:11;98077.45;;;9.07;73.26
75247;BME280;63844;50.042;19.224;2023-04-24T01:36:38;98075.61;;;9.03;72.11
75247;BME280;63844;50.042;19.224;2023-04-24T01:39:05;98073.98;;;8.96;72.28
75247;BME280;63844;50.042;19.224;2023-04-24T01:41:32;98073.59;;;8.88;72.57
75247;BME280;63844;50.042;19.224;2023-04-24T01:43:58;98073.14;;;8.79;75.72
75247;BME280;63844;50.042;19.224;2023-04-24T01:46:25;98070.91;;;8.73;76.72
75247;BME280;63844;50.042;19.224;2023-04-24T01:48:52;98068.63;;;8.73;75.55
75247;BME280;63844;50.042;19.224;2023-04-24T01:51:18;98065.09;;;8.64;78.36
75247;BME280;63844;50.042;19.224;2023-04-24T01:53:45;98060.65;;;8.59;75.80
75247;BME280;63844;50.042;19.224;2023-04-24T01:56:11;98062.77;;;8.57;73.70
75247;BME280;63844;50.042;19.224;2023-04-24T01:58:38;98064.13;;;8.53;74.59
75247;BME280;63844;50.042;19.224;2023-04-24T02:01:06;98063.20;;;8.51;73.45
75247;BME280;63844;50.042;19.224;2023-04-24T02:03:32;98058.30;;;8.43;72.74
75247;BME280;63844;50.042;19.224;2023-04-24T02:05:59;98058.64;;;8.39;73.02
75247;BME280;63844;50.042;19.224;2023-04-24T02:08:25;98058.08;;;8.34;73.58
75247;BME280;63844;50.042;19.224;2023-04-24T02:10:52;98059.02;;;8.30;74.40
75247;BME280;63844;50.042;19.224;2023-04-24T02:13:18;98053.34;;;8.26;74.40
75247;BME280;63844;50.042;19.224;2023-04-24T02:15:45;98050.92;;;8.20;73.40
75247;BME280;63844;50.042;19.224;2023-04-24T02:18:11;98050.36;;;8.16;74.20
75247;BME280;63844;50.042;19.224;2023-04-24T02:20:38;98045.97;;;8.11;74.69
75247;BME280;63844;50.042;19.224;2023-04-24T02:23:05;98041.98;;;8.10;73.82
75247;BME280;63844;50.042;19.224;2023-04-24T02:25:33;98040.90;;;8.10;73.14
75247;BME280;63844;50.042;19.224;2023-04-24T02:27:59;98043.30;;;8.06;72.83
75247;BME280;63844;50.042;19.224;2023-04-24T02:30:26;98039.56;;;8.02;73.72
75247;BME280;63844;50.042;19.224;2023-04-24T02:32:52;98036.52;;;8.02;76.16
75247;BME280;63844;50.042;19.224;2023-04-24T02:35:18;98034.77;;;8.05;74.35
75247;BME280;63844;50.042;19.224;2023-04-24T02:37:45;98031.83;;;8.04;73.69
75247;BME280;63844;50.042;19.224;2023-04-24T02:40:11;98027.02;;;8.02;73.04
75247;BME280;63844;50.042;19.224;2023-04-24T02:42:38;98030.59;;;7.99;73.89
75247;BME280;63844;50.042;19.224;2023-04-24T02:45:05;98027.66;;;7.98;77.20
75247;BME280;63844;50.042;19.224;2023-04-24T02:47:31;98027.85;;;7.93;76.27
75247;BME280;63844;50.042;19.224;2023-04-24T02:49:58;98028.71;;;7.91;75.57
75247;BME280;63844;50.042;19.224;2023-04-24T02:52:24;98031.73;;;7.90;78.15
75247;BME280;63844;50.042;19.224;2023-04-24T02:54:51;98029.31;;;7.93;74.56
75247;BME280;63844;50.042;19.224;2023-04-24T02:57:17;98028.61;;;7.90;73.80
75247;BME280;63844;50.042;19.224;2023-04-24T02:59:44;98026.83;;;7.90;76.40
75247;BME280;63844;50.042;19.224;2023-04-24T03:02:10;98027.15;;;7.91;74.13
75247;BME280;63844;50.042;19.224;2023-04-24T03:04:36;98026.67;;;7.92;74.30
75247;BME280;63844;50.042;19.224;2023-04-24T03:07:03;98026.73;;;7.92;75.57
75247;BME280;63844;50.042;19.224;2023-04-24T03:09:30;98028.17;;;7.91;78.28
75247;BME280;63844;50.042;19.224;2023-04-24T03:11:57;98025.64;;;7.94;77.22
75247;BME280;63844;50.042;19.224;2023-04-24T03:14:24;98027.30;;;7.98;77.01
75247;BME280;63844;50.042;19.224;2023-04-24T03:16:51;98027.11;;;7.96;74.49
75247;BME280;63844;50.042;19.224;2023-04-24T03:19:17;98029.66;;;7.95;76.13
75247;BME280;63844;50.042;19.224;2023-04-24T03:21:44;98032.85;;;7.95;75.92
75247;BME280;63844;50.042;19.224;2023-04-24T03:24:10;98033.95;;;7.97;77.30
75247;BME280;63844;50.042;19.224;2023-04-24T03:26:36;98031.50;;;7.96;77.84
75247;BME280;63844;50.042;19.224;2023-04-24T03:29:03;98032.89;;;7.97;76.27
75247;BME280;63844;50.042;19.224;2023-04-24T03:31:29;98029.48;;;7.97;76.36
75247;BME280;63844;50.042;19.224;2023-04-24T03:33:56;98026.48;;;7.99;77.01
75247;BME280;63844;50.042;19.224;2023-04-24T03:36:22;98029.40;;;8.01;77.84
75247;BME280;63844;50.042;19.224;2023-04-24T03:38:49;98026.83;;;8.02;77.09
75247;BME280;63844;50.042;19.224;2023-04-24T03:41:15;98030.67;;;8.05;76.52
75247;BME280;63844;50.042;19.224;2023-04-24T03:43:42;98025.50;;;8.06;78.01
75247;BME280;63844;50.042;19.224;2023-04-24T03:46:08;98025.33;;;8.08;76.20
75247;BME280;63844;50.042;19.224;2023-04-24T03:48:35;98025.05;;;8.10;77.09
75247;BME280;63844;50.042;19.224;2023-04-24T03:51:02;98024.54;;;8.15;75.21
75247;BME280;63844;50.042;19.224;2023-04-24T03:53:28;98024.05;;;8.19;75.11
75247;BME280;63844;50.042;19.224;2023-04-24T03:55:55;98025.74;;;8.27;75.50
75247;BME280;63844;50.042;19.224;2023-04-24T03:58:21;98026.70;;;8.36;74.43
75247;BME280;63844;50.042;19.224;2023-04-24T04:00:48;98027.50;;;8.45;73.90
75247;BME280;63844;50.042;19.224;2023-04-24T04:03:15;98030.34;;;8.52;74.39
75247;BME280;63844;50.042;19.224;2023-04-24T04:05:42;98029.93;;;8.55;75.49
75247;BME280;63844;50.042;19.224;2023-04-24T04:08:08;98031.56;;;8.54;74.25
75247;BME280;63844;50.042;19.224;2023-04-24T04:10:35;98028.13;;;8.58;74.00
75247;BME280;63844;50.042;19.224;2023-04-24T04:13:01;98027.73;;;8.63;73.15
75247;BME280;63844;50.042;19.224;2023-04-24T04:15:28;98030.85;;;8.67;74.30
75247;BME280;63844;50.042;19.224;2023-04-24T04:17:54;98031.21;;;8.69;73.75
75247;BME280;63844;50.042;19.224;2023-04-24T04:20:21;98028.02;;;8.71;73.94
75247;BME280;63844;50.042;19.224;2023-04-24T04:22:47;98031.80;;;8.73;75.78
75247;BME280;63844;50.042;19.224;2023-04-24T04:25:13;98030.05;;;8.77;73.82
75247;BME280;63844;50.042;19.224;2023-04-24T04:27:40;98027.95;;;8.85;73.55
75247;BME280;63844;50.042;19.224;2023-04-24T04:30:08;98024.27;;;8.91;73.94
75247;BME280;63844;50.042;19.224;2023-04-24T04:32:34;98024.21;;;8.96;74.00
75247;BME280;63844;50.042;19.224;2023-04-24T04:35:01;98024.04;;;9.04;73.20
75247;BME280;63844;50.042;19.224;2023-04-24T04:37:32;98022.38;;;9.09;74.41
75247;BME280;63844;50.042;19.224;2023-04-24T04:40:00;98024.56;;;9.20;72.79
75247;BME280;63844;50.042;19.224;2023-04-24T04:42:26;98022.40;;;9.30;72.11
75247;BME280;63844;50.042;19.224;2023-04-24T04:44:53;98021.44;;;9.42;72.50
75247;BME280;63844;50.042;19.224;2023-04-24T04:47:21;98021.11;;;9.54;71.62
75247;BME280;63844;50.042;19.224;2023-04-24T04:49:50;98020.86;;;9.66;70.82
75247;BME280;63844;50.042;19.224;2023-04-24T04:52:18;98020.23;;;9.81;69.85
75247;BME280;63844;50.042;19.224;2023-04-24T04:54:45;98021.15;;;9.96;69.83
75247;BME280;63844;50.042;19.224;2023-04-24T04:57:12;98020.70;;;10.10;68.54
75247;BME280;63844;50.042;19.224;2023-04-24T04:59:39;98020.88;;;10.26;68.04
75247;BME280;63844;50.042;19.224;2023-04-24T05:02:07;98019.85;;;10.39;67.53
75247;BME280;63844;50.042;19.224;2023-04-24T05:04:34;98019.23;;;10.53;66.56
75247;BME280;63844;50.042;19.224;2023-04-24T05:07:00;98021.41;;;10.68;65.46
75247;BME280;63844;50.042;19.224;2023-04-24T05:09:27;98020.83;;;10.81;64.86
75247;BME280;63844;50.042;19.224;2023-04-24T05:11:55;98018.17;;;10.94;64.75
75247;BME280;63844;50.042;19.224;2023-04-24T05:14:22;98019.94;;;11.07;64.03
75247;BME280;63844;50.042;19.224;2023-04-24T05:16:48;98017.30;;;11.19;63.73
75247;BME280;63844;50.042;19.224;2023-04-24T05:19:15;98015.98;;;11.31;63.48
75247;BME280;63844;50.042;19.224;2023-04-24T05:21:41;98012.04;;;11.41;62.97
75247;BME280;63844;50.042;19.224;2023-04-24T05:24:08;98016.31;;;11.54;63.01
75247;BME280;63844;50.042;19.224;2023-04-24T05:26:34;98014.18;;;11.64;62.71
75247;BME280;63844;50.042;19.224;2023-04-24T05:29:02;98013.95;;;11.75;62.05
75247;BME280;63844;50.042;19.224;2023-04-24T05:31:29;98011.59;;;11.86;62.26
75247;BME280;63844;50.042;19.224;2023-04-24T05:33:55;98013.17;;;11.97;61.61
75247;BME280;63844;50.042;19.224;2023-04-24T05:36:21;98014.95;;;12.05;61.57
75247;BME280;63844;50.042;19.224;2023-04-24T05:38:48;98013.69;;;12.15;61.19
75247;BME280;63844;50.042;19.224;2023-04-24T05:41:14;98008.23;;;12.24;60.70
75247;BME280;63844;50.042;19.224;2023-04-24T05:43:41;98010.66;;;12.35;61.56
75247;BME280;63844;50.042;19.224;2023-04-24T05:46:07;98008.51;;;12.46;60.34
75247;BME280;63844;50.042;19.224;2023-04-24T05:48:34;98005.02;;;12.57;60.64
75247;BME280;63844;50.042;19.224;2023-04-24T05:51:00;98007.30;;;12.67;59.49
75247;BME280;63844;50.042;19.224;2023-04-24T05:53:27;98004.48;;;12.76;59.18
75247;BME280;63844;50.042;19.224;2023-04-24T05:55:53;98003.33;;;12.87;58.98
75247;BME280;63844;50.042;19.224;2023-04-24T05:58:20;98000.19;;;12.96;57.90
75247;BME280;63844;50.042;19.224;2023-04-24T06:00:46;97997.21;;;13.03;58.46
75247;BME280;63844;50.042;19.224;2023-04-24T06:03:13;98000.49;;;13.11;57.67
75247;BME280;63844;50.042;19.224;2023-04-24T06:05:39;97999.05;;;13.16;57.04
75247;BME280;63844;50.042;19.224;2023-04-24T06:08:06;97992.73;;;13.23;56.05
75247;BME280;63844;50.042;19.224;2023-04-24T06:10:32;97995.25;;;13.31;56.35
75247;BME280;63844;50.042;19.224;2023-04-24T06:12:59;97993.04;;;13.39;56.32
75247;BME280;63844;50.042;19.224;2023-04-24T06:15:28;97992.86;;;13.47;56.10
75247;BME280;63844;50.042;19.224;2023-04-24T06:17:57;97993.68;;;13.53;55.95
75247;BME280;63844;50.042;19.224;2023-04-24T06:20:24;97988.22;;;13.60;55.90
75247;BME280;63844;50.042;19.224;2023-04-24T06:22:50;97990.15;;;13.68;55.54
75247;BME280;63844;50.042;19.224;2023-04-24T06:25:17;97992.20;;;13.77;55.32
75247;BME280;63844;50.042;19.224;2023-04-24T06:27:43;97986.24;;;13.85;55.25
75247;BME280;63844;50.042;19.224;2023-04-24T06:30:10;97983.78;;;13.96;55.91
75247;BME280;63844;50.042;19.224;2023-04-24T06:32:37;97983.08;;;14.05;54.97
75247;BME280;63844;50.042;19.224;2023-04-24T06:35:04;97982.00;;;14.14;55.11
75247;BME280;63844;50.042;19.224;2023-04-24T06:37:30;97975.86;;;14.22;54.96
75247;BME280;63844;50.042;19.224;2023-04-24T06:39:58;97972.11;;;14.30;54.03
75247;BME280;63844;50.042;19.224;2023-04-24T06:42:24;97968.52;;;14.41;54.67
75247;BME280;63844;50.042;19.224;2023-04-24T06:44:51;97966.02;;;14.52;54.38
75247;BME280;63844;50.042;19.224;2023-04-24T06:47:17;97959.84;;;14.68;54.79
75247;BME280;63844;50.042;19.224;2023-04-24T06:49:44;97960.50;;;14.81;53.85
75247;BME280;63844;50.042;19.224;2023-04-24T06:52:11;97959.58;;;14.93;53.35
75247;BME280;63844;50.042;19.224;2023-04-24T06:54:37;97958.11;;;14.99;53.18
75247;BME280;63844;50.042;19.224;2023-04-24T06:57:04;97960.96;;;15.08;52.53
75247;BME280;63844;50.042;19.224;2023-04-24T06:59:30;97963.78;;;15.17;52.26
75247;BME280;63844;50.042;19.224;2023-04-24T07:01:57;97956.56;;;15.28;52.64
75247;BME280;63844;50.042;19.224;2023-04-24T07:04:23;97955.98;;;15.41;52.50
75247;BME280;63844;50.042;19.224;2023-04-24T07:06:51;97952.70;;;15.52;52.63
75247;BME280;63844;50.042;19.224;2023-04-24T07:09:17;97950.65;;;15.60;52.45
75247;BME280;63844;50.042;19.224;2023-04-24T07:11:45;97947.79;;;15.62;51.36
75247;BME280;63844;50.042;19.224;2023-04-24T07:14:12;97944.59;;;15.65;52.39
75247;BME280;63844;50.042;19.224;2023-04-24T07:16:38;97945.09;;;15.71;52.33
75247;BME280;63844;50.042;19.224;2023-04-24T07:19:05;97941.73;;;15.76;51.58
75247;BME280;63844;50.042;19.224;2023-04-24T07:21:31;97942.74;;;15.85;51.20
75247;BME280;63844;50.042;19.224;2023-04-24T07:23:58;97938.30;;;15.95;50.67
75247;BME280;63844;50.042;19.224;2023-04-24T07:26:25;97938.65;;;16.09;51.28
75247;BME280;63844;50.042;19.224;2023-04-24T07:28:52;97937.23;;;16.25;49.96
75247;BME280;63844;50.042;19.224;2023-04-24T07:31:18;97940.29;;;16.42;49.87
75247;BME280;63844;50.042;19.224;2023-04-24T07:33:45;97933.86;;;16.57;49.39
75247;BME280;63844;50.042;19.224;2023-04-24T07:36:11;97933.73;;;16.70;47.95
75247;BME280;63844;50.042;19.224;2023-04-24T07:38:42;97933.95;;;16.81;47.95
75247;BME280;63844;50.042;19.224;2023-04-24T07:41:08;97931.13;;;16.89;47.10
75247;BME280;63844;50.042;19.224;2023-04-24T07:43:35;97928.06;;;16.97;47.13
75247;BME280;63844;50.042;19.224;2023-04-24T07:46:01;97929.55;;;17.07;45.49
75247;BME280;63844;50.042;19.224;2023-04-24T07:48:28;97927.56;;;17.15;46.29
75247;BME280;63844;50.042;19.224;2023-04-24T07:50:54;97919.53;;;17.29;46.17
75247;BME280;63844;50.042;19.224;2023-04-24T07:53:21;97920.27;;;17.45;44.62
75247;BME280;63844;50.042;19.224;2023-04-24T07:55:47;97916.50;;;17.53;43.11
75247;BME280;63844;50.042;19.224;2023-04-24T07:58:14;97923.17;;;17.66;44.42
75247;BME280;63844;50.042;19.224;2023-04-24T08:00:40;97918.94;;;17.68;41.06
75247;BME280;63844;50.042;19.224;2023-04-24T08:03:06;97912.41;;;17.72;42.45
75247;BME280;63844;50.042;19.224;2023-04-24T08:05:33;97910.08;;;17.77;42.91
75247;BME280;63844;50.042;19.224;2023-04-24T08:07:59;97907.85;;;17.86;42.42
75247;BME280;63844;50.042;19.224;2023-04-24T08:10:26;97906.23;;;17.97;43.22
75247;BME280;63844;50.042;19.224;2023-04-24T08:12:52;97901.91;;;18.07;43.58
75247;BME280;63844;50.042;19.224;2023-04-24T08:15:19;97904.24;;;18.11;43.27
75247;BME280;63844;50.042;19.224;2023-04-24T08:17:45;97902.10;;;18.21;42.47
75247;BME280;63844;50.042;19.224;2023-04-24T08:20:12;97898.82;;;18.27;42.40
75247;BME280;63844;50.042;19.224;2023-04-24T08:22:43;97898.33;;;18.38;41.49
75247;BME280;63844;50.042;19.224;2023-04-24T08:25:10;97894.05;;;18.44;41.85
75247;BME280;63844;50.042;19.224;2023-04-24T08:27:37;97889.45;;;18.50;41.73
75247;BME280;63844;50.042;19.224;2023-04-24T08:30:04;97891.95;;;18.55;41.00
75247;BME280;63844;50.042;19.224;2023-04-24T08:32:31;97889.51;;;18.55;40.21
75247;BME280;63844;50.042;19.224;2023-04-24T08:34:58;97891.58;;;18.60;41.13
75247;BME280;63844;50.042;19.224;2023-04-24T08:37:26;97893.59;;;18.71;41.40
75247;BME280;63844;50.042;19.224;2023-04-24T08:39:53;97890.67;;;18.71;39.32
75247;BME280;63844;50.042;19.224;2023-04-24T08:42:20;97887.60;;;18.67;39.50
75247;BME280;63844;50.042;19.224;2023-04-24T08:44:49;97883.55;;;18.74;39.66
75247;BME280;63844;50.042;19.224;2023-04-24T08:47:16;97884.16;;;18.81;39.33
75247;BME280;63844;50.042;19.224;2023-04-24T08:49:44;97881.77;;;18.97;40.79
75247;BME280;63844;50.042;19.224;2023-04-24T08:52:12;97878.12;;;19.17;40.60
75247;BME280;63844;50.042;19.224;2023-04-24T08:54:39;97879.00;;;19.38;41.19
75247;BME280;63844;50.042;19.224;2023-04-24T08:57:07;97883.64;;;19.55;39.67
75247;BME280;63844;50.042;19.224;2023-04-24T08:59:34;97877.48;;;19.57;37.99
75247;BME280;63844;50.042;19.224;2023-04-24T09:02:03;97879.80;;;19.66;39.01
75247;BME280;63844;50.042;19.224;2023-04-24T09:04:32;97876.56;;;19.86;39.06
75247;BME280;63844;50.042;19.224;2023-04-24T09:06:59;97875.34;;;20.10;38.56
75247;BME280;63844;50.042;19.224;2023-04-24T09:09:30;97873.27;;;20.23;38.46
75247;BME280;63844;50.042;19.224;2023-04-24T09:11:58;97870.40;;;20.39;38.90
75247;BME280;63844;50.042;19.224;2023-04-24T09:14:24;97867.91;;;20.56;38.76
75247;BME280;63844;50.042;19.224;2023-04-24T09:16:52;97866.63;;;20.65;37.67
75247;BME280;63844;50.042;19.224;2023-04-24T09:19:18;97863.55;;;20.77;38.37
75247;BME280;63844;50.042;19.224;2023-04-24T09:21:46;97861.31;;;20.84;38.10
75247;BME280;63844;50.042;19.224;2023-04-24T09:24:17;97862.10;;;20.93;37.35
75247;BME280;63844;50.042;19.224;2023-04-24T09:26:44;97860.03;;;20.89;36.25
75247;BME280;63844;50.042;19.224;2023-04-24T09:29:18;97856.47;;;20.95;36.47
75247;BME280;63844;50.042;19.224;2023-04-24T09:31:45;97851.73;;;20.95;36.24
75247;BME280;63844;50.042;19.224;2023-04-24T09:34:12;97852.48;;;20.99;36.43
75247;BME280;63844;50.042;19.224;2023-04-24T09:36:42;97850.65;;;21.10;37.64
75247;BME280;63844;50.042;19.224;2023-04-24T09:39:13;97846.72;;;21.13;37.30
75247;BME280;63844;50.042;19.224;2023-04-24T09:41:48;97840.98;;;21.18;36.90
75247;BME280;63844;50.042;19.224;2023-04-24T09:44:22;97838.66;;;21.24;36.85
75247;BME280;63844;50.042;19.224;2023-04-24T09:46:51;97840.75;;;21.32;36.76
75247;BME280;63844;50.042;19.224;2023-04-24T09:49:31;97836.09;;;21.25;36.89
75247;BME280;63844;50.042;19.224;2023-04-24T09:52:08;97831.41;;;21.09;37.04
75247;BME280;63844;50.042;19.224;2023-04-24T09:54:34;97832.14;;;21.02;36.04
75247;BME280;63844;50.042;19.224;2023-04-24T09:57:03;97830.42;;;20.94;36.20
75247;BME280;63844;50.042;19.224;2023-04-24T09:59:30;97823.89;;;20.80;34.85
75247;BME280;63844;50.042;19.224;2023-04-24T10:01:56;97823.81;;;20.81;36.26
75247;BME280;63844;50.042;19.224;2023-04-24T10:04:26;97826.66;;;20.74;36.60
75247;BME280;63844;50.042;19.224;2023-04-24T10:06:55;97825.61;;;20.58;35.35
75247;BME280;63844;50.042;19.224;2023-04-24T10:09:24;97825.81;;;20.47;35.84
75247;BME280;63844;50.042;19.224;2023-04-24T10:11:52;97830.52;;;20.36;36.10
75247;BME280;63844;50.042;19.224;2023-04-24T10:14:21;97831.25;;;20.27;36.48
75247;BME280;63844;50.042;19.224;2023-04-24T10:16:48;97836.27;;;20.07;36.51
75247;BME280;63844;50.042;19.224;2023-04-24T10:19:16;97841.59;;;19.88;36.55
75247;BME280;63844;50.042;19.224;2023-04-24T10:21:45;97841.91;;;19.69;37.05
75247;BME280;63844;50.042;19.224;2023-04-24T10:24:16;97839.85;;;19.52;37.47
75247;BME280;63844;50.042;19.224;2023-04-24T10:26:45;97846.80;;;19.24;37.53
75247;BME280;63844;50.042;19.224;2023-04-24T10:29:12;97844.60;;;19.18;38.05
75247;BME280;63844;50.042;19.224;2023-04-24T10:31:41;97846.55;;;19.05;38.20
75247;BME280;63844;50.042;19.224;2023-04-24T10:34:09;97850.16;;;19.00;38.54
75247;BME280;63844;50.042;19.224;2023-04-24T10:36:39;97848.61;;;18.96;38.84
75247;BME280;63844;50.042;19.224;2023-04-24T10:39:08;97845.39;;;18.99;38.95
75247;BME280;63844;50.042;19.224;2023-04-24T10:41:38;97845.02;;;19.10;39.13
75247;BME280;63844;50.042;19.224;2023-04-24T10:44:09;97844.73;;;19.18;39.19
75247;BME280;63844;50.042;19.224;2023-04-24T10:46:37;97843.39;;;19.27;39.07
75247;BME280;63844;50.042;19.224;2023-04-24T10:49:05;97841.30;;;19.22;38.95
75247;BME280;63844;50.042;19.224;2023-04-24T10:51:51;97843.38;;;19.36;38.74
75247;BME280;63844;50.042;19.224;2023-04-24T10:54:33;97841.35;;;19.43;38.80
75247;BME280;63844;50.042;19.224;2023-04-24T10:57:27;97833.04;;;19.65;38.96
75247;BME280;63844;50.042;19.224;2023-04-24T11:00:18;97833.05;;;19.84;38.96
75247;BME280;63844;50.042;19.224;2023-04-24T11:02:47;97831.96;;;19.92;38.75
75247;BME280;63844;50.042;19.224;2023-04-24T11:05:20;97831.21;;;20.00;38.25
75247;BME280;63844;50.042;19.224;2023-04-24T11:10:39;97836.80;;;20.14;38.14
75247;BME280;63844;50.042;19.224;2023-04-24T11:13:07;97835.91;;;20.29;37.82
75247;BME280;63844;50.042;19.224;2023-04-24T11:15:33;97837.44;;;20.25;37.29
75247;BME280;63844;50.042;19.224;2023-04-24T11:18:00;97845.09;;;20.17;37.38
75247;BME280;63844;50.042;19.224;2023-04-24T11:20:26;97846.20;;;20.13;37.49
75247;BME280;63844;50.042;19.224;2023-04-24T11:22:54;97856.14;;;20.09;38.42
75247;BME280;63844;50.042;19.224;2023-04-24T11:25:21;97858.09;;;19.85;38.89
75247;BME280;63844;50.042;19.224;2023-04-24T11:27:49;97856.29;;;19.83;39.26
75247;BME280;63844;50.042;19.224;2023-04-24T11:30:20;97863.86;;;19.73;39.67
75247;BME280;63844;50.042;19.224;2023-04-24T11:32:52;97871.58;;;19.43;40.26
75247;BME280;63844;50.042;19.224;2023-04-24T11:37:48;97873.77;;;18.96;41.87
75247;BME280;63844;50.042;19.224;2023-04-24T11:40:19;97869.92;;;18.89;42.10
75247;BME280;63844;50.042;19.224;2023-04-24T11:42:47;97875.20;;;18.87;42.77
75247;BME280;63844;50.042;19.224;2023-04-24T11:45:18;97871.40;;;18.87;42.79
75247;BME280;63844;50.042;19.224;2023-04-24T11:47:45;97871.69;;;18.93;43.17
75247;BME280;63844;50.042;19.224;2023-04-24T11:50:14;97874.77;;;18.82;43.15
75247;BME280;63844;50.042;19.224;2023-04-24T11:52:42;97875.73;;;18.67;43.56
75247;BME280;63844;50.042;19.224;2023-04-24T11:57:47;97873.10;;;18.50;44.06
75247;BME280;63844;50.042;19.224;2023-04-24T12:00:21;97876.38;;;18.23;44.59
75247;BME280;63844;50.042;19.224;2023-04-24T12:02:49;97880.42;;;18.08;44.98
75247;BME280;63844;50.042;19.224;2023-04-24T12:05:26;97879.02;;;17.98;45.00
75247;BME280;63844;50.042;19.224;2023-04-24T12:07:53;97878.79;;;17.93;45.27
75247;BME280;63844;50.042;19.224;2023-04-24T12:10:24;97878.85;;;17.88;45.69
75247;BME280;63844;50.042;19.224;2023-04-24T12:12:52;97876.47;;;17.79;45.85
75247;BME280;63844;50.042;19.224;2023-04-24T12:15:20;97879.34;;;17.78;46.27
75247;BME280;63844;50.042;19.224;2023-04-24T12:17:47;97878.85;;;17.64;46.34
75247;BME280;63844;50.042;19.224;2023-04-24T12:20:14;97877.52;;;17.50;46.66
75247;BME280;63844;50.042;19.224;2023-04-24T12:22:48;97873.24;;;17.64;46.69
75247;BME280;63844;50.042;19.224;2023-04-24T12:25:17;97875.56;;;17.44;47.39
75247;BME280;63844;50.042;19.224;2023-04-24T12:27:45;97873.23;;;17.29;47.56
75247;BME280;63844;50.042;19.224;2023-04-24T12:30:13;97874.02;;;17.29;47.70
75247;BME280;63844;50.042;19.224;2023-04-24T12:32:46;97867.84;;;17.17;48.04
75247;BME280;63844;50.042;19.224;2023-04-24T12:35:13;97872.36;;;17.06;48.54
75247;BME280;63844;50.042;19.224;2023-04-24T12:37:42;97870.18;;;17.04;48.94
75247;BME280;63844;50.042;19.224;2023-04-24T12:40:10;97868.21;;;17.13;49.13
75247;BME280;63844;50.042;19.224;2023-04-24T12:42:45;97871.42;;;17.05;49.32
75247;BME280;63844;50.042;19.224;2023-04-24T12:45:13;97871.38;;;17.10;49.32
75247;BME280;63844;50.042;19.224;2023-04-24T12:47:41;97868.05;;;16.84;50.12
75247;BME280;63844;50.042;19.224;2023-04-24T12:50:09;97872.44;;;16.94;50.17
75247;BME280;63844;50.042;19.224;2023-04-24T12:52:36;97872.31;;;16.87;50.21
75247;BME280;63844;50.042;19.224;2023-04-24T12:55:03;97875.98;;;16.72;50.54
75247;BME280;63844;50.042;19.224;2023-04-24T12:57:31;97870.35;;;16.73;50.73
75247;BME280;63844;50.042;19.224;2023-04-24T12:59:58;97867.99;;;16.61;50.77
75247;BME280;63844;50.042;19.224;2023-04-24T13:02:27;97871.11;;;16.64;51.19